sensor_id;sensor_type;location;lat;lon;timestamp;pressure;altitude;pressure_sealevel;temperature;humidity
60069;BME280;45945;53.350;55.922;2022-09-09T00:01:02;99952.97;;;8.28;82.11
60069;BME280;45945;53.350;55.922;2022-09-09T00:03:33;99949.38;;;8.25;82.38
60069;BME280;45945;53.350;55.922;2022-09-09T00:04:37;99954.50;;;8.22;82.03
60069;BME280;45945;53.350;55.922;2022-09-09T00:05:45;99953.69;;;8.24;82.80
60069;BME280;45945;53.350;55.922;2022-09-09T00:07:01;99952.88;;;8.25;82.68
60069;BME280;45945;53.350;55.922;2022-09-09T00:08:04;99933.22;;;8.09;82.47
60069;BME280;45945;53.350;55.922;2022-09-09T00:10:16;99949.94;;;8.16;83.50
60069;BME280;45945;53.350;55.922;2022-09-09T00:12:48;99946.63;;;8.20;83.01
60069;BME280;45945;53.350;55.922;2022-09-09T00:13:53;99941.53;;;8.23;82.80
60069;BME280;45945;53.350;55.922;2022-09-09T00:15:10;99946.78;;;8.25;82.93
60069;BME280;45945;53.350;55.922;2022-09-09T00:16:22;99938.97;;;8.25;82.48
60069;BME280;45945;53.350;55.922;2022-09-09T00:17:47;99944.22;;;8.26;82.60
60069;BME280;45945;53.350;55.922;2022-09-09T00:19:02;99943.25;;;8.24;82.44
60069;BME280;45945;53.350;55.922;2022-09-09T00:20:32;99941.69;;;8.28;82.48
60069;BME280;45945;53.350;55.922;2022-09-09T00:21:39;99943.34;;;8.26;82.86
60069;BME280;45945;53.350;55.922;2022-09-09T00:22:53;99947.88;;;8.31;82.50
60069;BME280;45945;53.350;55.922;2022-09-09T00:23:56;99942.56;;;8.28;82.36
60069;BME280;45945;53.350;55.922;2022-09-09T00:27:31;99950.72;;;8.39;82.90
60069;BME280;45945;53.350;55.922;2022-09-09T00:28:44;99942.75;;;8.34;82.51
60069;BME280;45945;53.350;55.922;2022-09-09T00:31:23;99942.72;;;8.33;82.55
60069;BME280;45945;53.350;55.922;2022-09-09T00:32:30;99936.53;;;8.29;82.76
60069;BME280;45945;53.350;55.922;2022-09-09T00:33:31;99945.00;;;8.24;83.57
60069;BME280;45945;53.350;55.922;2022-09-09T00:34:33;99944.72;;;8.16;83.06
60069;BME280;45945;53.350;55.922;2022-09-09T00:35:36;99945.81;;;8.23;83.32
60069;BME280;45945;53.350;55.922;2022-09-09T00:36:40;99937.75;;;8.15;83.09
60069;BME280;45945;53.350;55.922;2022-09-09T00:37:42;99942.19;;;8.18;83.40
60069;BME280;45945;53.350;55.922;2022-09-09T00:38:48;99944.53;;;8.10;83.42
60069;BME280;45945;53.350;55.922;2022-09-09T00:39:51;99929.63;;;8.06;83.14
60069;BME280;45945;53.350;55.922;2022-09-09T00:42:26;99927.91;;;8.06;83.23
60069;BME280;45945;53.350;55.922;2022-09-09T00:43:33;99931.94;;;7.98;84.13
60069;BME280;45945;53.350;55.922;2022-09-09T00:44:37;99932.72;;;7.95;84.32
60069;BME280;45945;53.350;55.922;2022-09-09T00:48:35;99921.31;;;7.92;83.76
60069;BME280;45945;53.350;55.922;2022-09-09T00:50:00;99917.09;;;7.95;83.97
60069;BME280;45945;53.350;55.922;2022-09-09T00:52:49;99907.47;;;7.93;84.47
60069;BME280;45945;53.350;55.922;2022-09-09T00:54:10;99902.28;;;7.93;84.21
60069;BME280;45945;53.350;55.922;2022-09-09T00:55:34;99904.78;;;7.90;84.56
60069;BME280;45945;53.350;55.922;2022-09-09T00:57:16;99901.09;;;7.85;85.37
60069;BME280;45945;53.350;55.922;2022-09-09T00:58:20;99897.31;;;7.75;85.26
60069;BME280;45945;53.350;55.922;2022-09-09T01:00:46;99905.00;;;7.72;85.97
60069;BME280;45945;53.350;55.922;2022-09-09T01:01:51;99885.31;;;7.56;86.44
60069;BME280;45945;53.350;55.922;2022-09-09T01:03:33;99902.34;;;7.70;86.87
60069;BME280;45945;53.350;55.922;2022-09-09T01:04:36;99899.25;;;7.56;87.17
60069;BME280;45945;53.350;55.922;2022-09-09T01:07:26;99906.09;;;7.54;86.61
60069;BME280;45945;53.350;55.922;2022-09-09T01:10:11;99897.03;;;7.67;86.72
60069;BME280;45945;53.350;55.922;2022-09-09T01:11:23;99879.31;;;7.57;87.15
60069;BME280;45945;53.350;55.922;2022-09-09T01:12:41;99897.91;;;7.68;87.29
60069;BME280;45945;53.350;55.922;2022-09-09T01:13:45;99895.25;;;7.66;87.45
60069;BME280;45945;53.350;55.922;2022-09-09T01:14:52;99896.19;;;7.68;87.40
60069;BME280;45945;53.350;55.922;2022-09-09T01:15:58;99897.84;;;7.66;87.32
60069;BME280;45945;53.350;55.922;2022-09-09T01:17:26;99903.00;;;7.65;87.45
60069;BME280;45945;53.350;55.922;2022-09-09T01:18:39;99902.81;;;7.60;87.83
60069;BME280;45945;53.350;55.922;2022-09-09T01:22:20;99897.28;;;7.51;88.41
60069;BME280;45945;53.350;55.922;2022-09-09T01:25:21;99900.88;;;7.54;88.87
60069;BME280;45945;53.350;55.922;2022-09-09T01:26:47;99908.69;;;7.54;88.68
60069;BME280;45945;53.350;55.922;2022-09-09T01:28:00;99907.97;;;7.58;88.51
60069;BME280;45945;53.350;55.922;2022-09-09T01:29:15;99909.94;;;7.64;88.80
60069;BME280;45945;53.350;55.922;2022-09-09T01:30:18;99905.72;;;7.68;88.55
60069;BME280;45945;53.350;55.922;2022-09-09T01:31:27;99911.91;;;7.71;88.55
60069;BME280;45945;53.350;55.922;2022-09-09T01:32:47;99915.25;;;7.67;88.31
60069;BME280;45945;53.350;55.922;2022-09-09T01:33:50;99916.78;;;7.62;88.58
60069;BME280;45945;53.350;55.922;2022-09-09T01:34:51;99917.63;;;7.61;88.34
60069;BME280;45945;53.350;55.922;2022-09-09T01:36:37;99916.81;;;7.63;88.59
60069;BME280;45945;53.350;55.922;2022-09-09T01:37:22;99906.13;;;7.56;88.37
60069;BME280;45945;53.350;55.922;2022-09-09T01:38:24;99910.56;;;7.58;88.63
60069;BME280;45945;53.350;55.922;2022-09-09T01:39:26;99917.03;;;7.70;88.16
60069;BME280;45945;53.350;55.922;2022-09-09T01:40:35;99908.03;;;7.60;88.60
60069;BME280;45945;53.350;55.922;2022-09-09T01:41:37;99915.66;;;7.55;87.94
60069;BME280;45945;53.350;55.922;2022-09-09T01:42:42;99919.38;;;7.62;87.76
60069;BME280;45945;53.350;55.922;2022-09-09T01:43:43;99915.25;;;7.67;87.84
60069;BME280;45945;53.350;55.922;2022-09-09T01:44:45;99909.69;;;7.58;87.92
60069;BME280;45945;53.350;55.922;2022-09-09T01:45:48;99894.97;;;7.58;87.98
60069;BME280;45945;53.350;55.922;2022-09-09T01:46:50;99903.69;;;7.60;88.09
60069;BME280;45945;53.350;55.922;2022-09-09T01:47:53;99897.78;;;7.65;87.49
60069;BME280;45945;53.350;55.922;2022-09-09T01:49:02;99898.72;;;7.67;87.30
60069;BME280;45945;53.350;55.922;2022-09-09T01:50:07;99901.44;;;7.70;87.44
60069;BME280;45945;53.350;55.922;2022-09-09T01:51:11;99895.47;;;7.72;87.31
60069;BME280;45945;53.350;55.922;2022-09-09T01:52:13;99898.78;;;7.68;87.66
60069;BME280;45945;53.350;55.922;2022-09-09T01:53:15;99892.59;;;7.65;87.26
60069;BME280;45945;53.350;55.922;2022-09-09T01:54:19;99895.94;;;7.62;86.78
60069;BME280;45945;53.350;55.922;2022-09-09T01:55:29;99895.25;;;7.66;87.34
60069;BME280;45945;53.350;55.922;2022-09-09T01:56:47;99896.00;;;7.63;87.18
60069;BME280;45945;53.350;55.922;2022-09-09T01:58:20;99896.91;;;7.64;87.17
60069;BME280;45945;53.350;55.922;2022-09-09T02:03:29;99900.00;;;7.54;87.59
60069;BME280;45945;53.350;55.922;2022-09-09T02:07:39;99903.03;;;7.42;88.13
60069;BME280;45945;53.350;55.922;2022-09-09T02:09:00;99894.88;;;7.33;88.01
60069;BME280;45945;53.350;55.922;2022-09-09T02:10:22;99902.75;;;7.34;88.33
60069;BME280;45945;53.350;55.922;2022-09-09T02:11:37;99900.19;;;7.36;87.90
60069;BME280;45945;53.350;55.922;2022-09-09T02:13:05;99909.72;;;7.35;87.84
60069;BME280;45945;53.350;55.922;2022-09-09T02:14:11;99896.53;;;7.31;88.03
60069;BME280;45945;53.350;55.922;2022-09-09T02:15:24;99892.34;;;7.34;88.26
60069;BME280;45945;53.350;55.922;2022-09-09T02:16:47;99897.66;;;7.37;88.18
60069;BME280;45945;53.350;55.922;2022-09-09T02:17:52;99878.94;;;7.23;88.20
60069;BME280;45945;53.350;55.922;2022-09-09T02:19:00;99901.19;;;7.39;87.75
60069;BME280;45945;53.350;55.922;2022-09-09T02:20:15;99889.69;;;7.33;88.14
60069;BME280;45945;53.350;55.922;2022-09-09T02:21:29;99892.28;;;7.33;87.56
60069;BME280;45945;53.350;55.922;2022-09-09T02:22:33;99891.69;;;7.40;88.05
60069;BME280;45945;53.350;55.922;2022-09-09T02:23:37;99891.31;;;7.31;88.09
60069;BME280;45945;53.350;55.922;2022-09-09T02:24:42;99890.50;;;7.32;88.48
60069;BME280;45945;53.350;55.922;2022-09-09T02:25:55;99891.31;;;7.31;88.35
60069;BME280;45945;53.350;55.922;2022-09-09T02:27:03;99892.50;;;7.39;88.00
60069;BME280;45945;53.350;55.922;2022-09-09T02:28:08;99888.78;;;7.32;87.53
60069;BME280;45945;53.350;55.922;2022-09-09T02:29:17;99892.41;;;7.36;87.81
60069;BME280;45945;53.350;55.922;2022-09-09T02:30:20;99888.13;;;7.38;87.49
60069;BME280;45945;53.350;55.922;2022-09-09T02:31:31;99894.25;;;7.38;87.72
60069;BME280;45945;53.350;55.922;2022-09-09T02:32:42;99892.34;;;7.34;87.59
60069;BME280;45945;53.350;55.922;2022-09-09T02:33:52;99895.81;;;7.35;87.56
60069;BME280;45945;53.350;55.922;2022-09-09T02:35:00;99891.47;;;7.34;87.31
60069;BME280;45945;53.350;55.922;2022-09-09T02:36:05;99892.22;;;7.31;87.66
60069;BME280;45945;53.350;55.922;2022-09-09T02:37:09;99886.06;;;7.29;87.61
60069;BME280;45945;53.350;55.922;2022-09-09T02:38:13;99890.56;;;7.33;87.21
60069;BME280;45945;53.350;55.922;2022-09-09T02:39:22;99885.38;;;7.33;87.65
60069;BME280;45945;53.350;55.922;2022-09-09T02:40:25;99890.69;;;7.36;87.68
60069;BME280;45945;53.350;55.922;2022-09-09T02:41:34;99891.88;;;7.44;87.37
60069;BME280;45945;53.350;55.922;2022-09-09T02:42:45;99888.31;;;7.42;87.00
60069;BME280;45945;53.350;55.922;2022-09-09T02:43:46;99885.69;;;7.42;87.07
60069;BME280;45945;53.350;55.922;2022-09-09T02:44:49;99884.06;;;7.44;87.02
60069;BME280;45945;53.350;55.922;2022-09-09T02:50:00;99884.00;;;7.91;85.99
60069;BME280;45945;53.350;55.922;2022-09-09T02:51:26;99878.06;;;7.95;85.36
60069;BME280;45945;53.350;55.922;2022-09-09T02:53:05;99884.44;;;8.04;85.16
60069;BME280;45945;53.350;55.922;2022-09-09T02:54:18;99880.31;;;8.10;84.58
60069;BME280;45945;53.350;55.922;2022-09-09T02:56:47;99877.78;;;8.39;84.23
60069;BME280;45945;53.350;55.922;2022-09-09T02:57:51;99882.22;;;8.67;83.58
60069;BME280;45945;53.350;55.922;2022-09-09T02:58:54;99882.47;;;8.75;82.38
60069;BME280;45945;53.350;55.922;2022-09-09T02:59:57;99884.03;;;8.97;82.21
60069;BME280;45945;53.350;55.922;2022-09-09T03:00:59;99881.56;;;9.02;81.53
60069;BME280;45945;53.350;55.922;2022-09-09T03:02:02;99878.59;;;9.18;81.28
60069;BME280;45945;53.350;55.922;2022-09-09T03:03:04;99876.06;;;9.21;80.04
60069;BME280;45945;53.350;55.922;2022-09-09T03:04:06;99874.56;;;9.60;79.75
60069;BME280;45945;53.350;55.922;2022-09-09T03:05:08;99878.69;;;9.84;78.39
60069;BME280;45945;53.350;55.922;2022-09-09T03:06:09;99885.88;;;9.91;78.70
60069;BME280;45945;53.350;55.922;2022-09-09T03:07:13;99881.38;;;9.87;77.19
60069;BME280;45945;53.350;55.922;2022-09-09T03:08:16;99880.81;;;9.97;77.59
60069;BME280;45945;53.350;55.922;2022-09-09T03:09:18;99884.09;;;10.23;77.25
60069;BME280;45945;53.350;55.922;2022-09-09T03:10:19;99879.81;;;10.25;76.75
60069;BME280;45945;53.350;55.922;2022-09-09T03:11:20;99877.31;;;10.30;76.67
60069;BME280;45945;53.350;55.922;2022-09-09T03:12:21;99872.19;;;10.33;75.61
60069;BME280;45945;53.350;55.922;2022-09-09T03:13:22;99877.09;;;10.56;76.05
60069;BME280;45945;53.350;55.922;2022-09-09T03:14:24;99875.63;;;10.67;75.59
60069;BME280;45945;53.350;55.922;2022-09-09T03:15:26;99869.34;;;10.97;74.24
60069;BME280;45945;53.350;55.922;2022-09-09T03:16:30;99871.78;;;11.29;73.71
60069;BME280;45945;53.350;55.922;2022-09-09T03:17:31;99860.84;;;11.48;72.90
60069;BME280;45945;53.350;55.922;2022-09-09T03:18:35;99864.63;;;11.63;71.36
60069;BME280;45945;53.350;55.922;2022-09-09T03:19:36;99862.84;;;11.60;71.43
60069;BME280;45945;53.350;55.922;2022-09-09T03:20:38;99864.19;;;11.41;71.77
60069;BME280;45945;53.350;55.922;2022-09-09T03:21:39;99857.44;;;11.52;72.00
60069;BME280;45945;53.350;55.922;2022-09-09T03:22:41;99864.09;;;11.79;71.57
60069;BME280;45945;53.350;55.922;2022-09-09T03:23:42;99861.94;;;12.04;71.45
60069;BME280;45945;53.350;55.922;2022-09-09T03:24:43;99861.69;;;12.39;69.54
60069;BME280;45945;53.350;55.922;2022-09-09T03:25:50;99869.84;;;12.59;68.51
60069;BME280;45945;53.350;55.922;2022-09-09T03:26:56;99858.72;;;12.74;69.98
60069;BME280;45945;53.350;55.922;2022-09-09T03:27:58;99855.22;;;12.72;69.48
60069;BME280;45945;53.350;55.922;2022-09-09T03:28:59;99863.34;;;12.90;67.04
60069;BME280;45945;53.350;55.922;2022-09-09T03:30:02;99856.38;;;12.89;66.00
60069;BME280;45945;53.350;55.922;2022-09-09T03:31:05;99860.13;;;13.10;65.70
60069;BME280;45945;53.350;55.922;2022-09-09T03:32:10;99858.03;;;13.47;65.39
60069;BME280;45945;53.350;55.922;2022-09-09T03:33:12;99860.81;;;13.61;64.68
60069;BME280;45945;53.350;55.922;2022-09-09T03:34:13;99855.44;;;13.50;64.57
60069;BME280;45945;53.350;55.922;2022-09-09T03:35:15;99860.06;;;13.71;65.31
60069;BME280;45945;53.350;55.922;2022-09-09T03:36:16;99852.41;;;13.91;63.50
60069;BME280;45945;53.350;55.922;2022-09-09T03:37:18;99863.03;;;14.04;64.57
60069;BME280;45945;53.350;55.922;2022-09-09T03:38:20;99851.72;;;14.11;63.80
60069;BME280;45945;53.350;55.922;2022-09-09T03:39:21;99851.81;;;14.20;63.79
60069;BME280;45945;53.350;55.922;2022-09-09T03:40:22;99851.09;;;14.41;63.33
60069;BME280;45945;53.350;55.922;2022-09-09T03:41:24;99853.63;;;14.26;64.38
60069;BME280;45945;53.350;55.922;2022-09-09T03:42:25;99844.53;;;13.94;63.05
60069;BME280;45945;53.350;55.922;2022-09-09T03:43:29;99854.06;;;13.83;64.35
60069;BME280;45945;53.350;55.922;2022-09-09T03:44:30;99849.06;;;14.08;63.66
60069;BME280;45945;53.350;55.922;2022-09-09T03:45:31;99851.16;;;14.49;63.26
60069;BME280;45945;53.350;55.922;2022-09-09T03:46:33;99852.22;;;14.66;62.96
60069;BME280;45945;53.350;55.922;2022-09-09T03:47:35;99852.31;;;14.82;61.16
60069;BME280;45945;53.350;55.922;2022-09-09T03:48:39;99848.03;;;14.96;61.48
60069;BME280;45945;53.350;55.922;2022-09-09T03:49:41;99850.50;;;14.75;62.15
60069;BME280;45945;53.350;55.922;2022-09-09T03:50:50;99845.19;;;14.65;61.66
60069;BME280;45945;53.350;55.922;2022-09-09T03:51:51;99847.16;;;14.96;60.95
60069;BME280;45945;53.350;55.922;2022-09-09T03:52:52;99850.75;;;15.09;61.39
60069;BME280;45945;53.350;55.922;2022-09-09T03:53:56;99835.91;;;15.28;60.98
60069;BME280;45945;53.350;55.922;2022-09-09T03:55:00;99846.59;;;15.65;60.63
60069;BME280;45945;53.350;55.922;2022-09-09T03:56:04;99840.47;;;15.73;60.33
60069;BME280;45945;53.350;55.922;2022-09-09T03:57:07;99848.38;;;15.70;60.61
60069;BME280;45945;53.350;55.922;2022-09-09T03:58:08;99849.16;;;15.40;60.48
60069;BME280;45945;53.350;55.922;2022-09-09T03:59:08;99842.00;;;15.16;60.15
60069;BME280;45945;53.350;55.922;2022-09-09T04:00:10;99846.50;;;15.40;60.95
60069;BME280;45945;53.350;55.922;2022-09-09T04:01:25;99848.91;;;14.97;60.24
60069;BME280;45945;53.350;55.922;2022-09-09T04:02:26;99848.38;;;15.67;60.10
60069;BME280;45945;53.350;55.922;2022-09-09T04:03:28;99847.44;;;15.56;59.64
60069;BME280;45945;53.350;55.922;2022-09-09T04:04:29;99849.81;;;15.05;59.55
60069;BME280;45945;53.350;55.922;2022-09-09T04:05:31;99856.44;;;14.50;61.52
60069;BME280;45945;53.350;55.922;2022-09-09T04:06:34;99859.72;;;14.25;62.69
60069;BME280;45945;53.350;55.922;2022-09-09T04:07:35;99857.13;;;14.28;63.19
60069;BME280;45945;53.350;55.922;2022-09-09T04:08:36;99855.28;;;14.19;63.22
60069;BME280;45945;53.350;55.922;2022-09-09T04:09:39;99856.75;;;13.86;63.22
60069;BME280;45945;53.350;55.922;2022-09-09T04:10:40;99862.19;;;13.33;64.25
60069;BME280;45945;53.350;55.922;2022-09-09T04:11:42;99864.03;;;13.37;65.24
60069;BME280;45945;53.350;55.922;2022-09-09T04:12:44;99859.97;;;13.60;65.42
60069;BME280;45945;53.350;55.922;2022-09-09T04:13:45;99861.41;;;14.15;63.69
60069;BME280;45945;53.350;55.922;2022-09-09T04:14:47;99870.28;;;14.29;62.48
60069;BME280;45945;53.350;55.922;2022-09-09T04:15:56;99862.78;;;14.69;62.07
60069;BME280;45945;53.350;55.922;2022-09-09T04:16:57;99859.31;;;14.77;62.46
60069;BME280;45945;53.350;55.922;2022-09-09T04:18:00;99863.69;;;14.78;61.81
60069;BME280;45945;53.350;55.922;2022-09-09T04:19:03;99867.91;;;14.57;63.22
60069;BME280;45945;53.350;55.922;2022-09-09T04:20:05;99853.78;;;14.49;62.92
60069;BME280;45945;53.350;55.922;2022-09-09T04:21:09;99860.78;;;14.42;63.22
60069;BME280;45945;53.350;55.922;2022-09-09T04:22:10;99860.72;;;14.36;62.90
60069;BME280;45945;53.350;55.922;2022-09-09T04:23:12;99863.72;;;13.87;63.63
60069;BME280;45945;53.350;55.922;2022-09-09T04:24:13;99855.06;;;13.94;64.47
60069;BME280;45945;53.350;55.922;2022-09-09T04:25:14;99858.44;;;13.84;64.82
60069;BME280;45945;53.350;55.922;2022-09-09T04:26:15;99858.56;;;13.95;63.93
60069;BME280;45945;53.350;55.922;2022-09-09T04:27:18;99866.25;;;13.78;63.61
60069;BME280;45945;53.350;55.922;2022-09-09T04:28:22;99867.88;;;13.65;63.59
60069;BME280;45945;53.350;55.922;2022-09-09T04:29:23;99869.97;;;13.26;64.14
60069;BME280;45945;53.350;55.922;2022-09-09T04:30:25;99872.56;;;13.23;65.17
60069;BME280;45945;53.350;55.922;2022-09-09T04:31:28;99871.63;;;13.87;63.70
60069;BME280;45945;53.350;55.922;2022-09-09T04:32:32;99857.63;;;13.88;62.88
60069;BME280;45945;53.350;55.922;2022-09-09T04:33:33;99865.66;;;14.04;62.89
60069;BME280;45945;53.350;55.922;2022-09-09T04:34:35;99867.44;;;14.06;61.13
60069;BME280;45945;53.350;55.922;2022-09-09T04:35:36;99876.25;;;14.13;61.70
60069;BME280;45945;53.350;55.922;2022-09-09T04:36:38;99862.22;;;14.11;60.98
60069;BME280;45945;53.350;55.922;2022-09-09T04:37:41;99872.91;;;14.29;61.30
60069;BME280;45945;53.350;55.922;2022-09-09T04:38:42;99862.00;;;14.83;59.85
60069;BME280;45945;53.350;55.922;2022-09-09T04:39:45;99863.41;;;15.87;59.33
60069;BME280;45945;53.350;55.922;2022-09-09T04:40:46;99859.84;;;15.82;57.49
60069;BME280;45945;53.350;55.922;2022-09-09T04:41:48;99868.69;;;15.94;57.34
60069;BME280;45945;53.350;55.922;2022-09-09T04:42:51;99865.94;;;15.74;55.57
60069;BME280;45945;53.350;55.922;2022-09-09T04:43:52;99872.97;;;15.69;56.12
60069;BME280;45945;53.350;55.922;2022-09-09T04:44:55;99874.59;;;15.39;56.14
60069;BME280;45945;53.350;55.922;2022-09-09T04:45:57;99881.38;;;14.97;56.69
60069;BME280;45945;53.350;55.922;2022-09-09T04:46:59;99874.41;;;15.01;57.34
60069;BME280;45945;53.350;55.922;2022-09-09T04:48:01;99877.94;;;15.09;58.01
60069;BME280;45945;53.350;55.922;2022-09-09T04:49:04;99877.94;;;15.09;57.99
60069;BME280;45945;53.350;55.922;2022-09-09T04:50:08;99880.66;;;15.23;59.67
60069;BME280;45945;53.350;55.922;2022-09-09T04:51:12;99869.38;;;15.55;58.72
60069;BME280;45945;53.350;55.922;2022-09-09T04:52:13;99883.41;;;15.43;57.93
60069;BME280;45945;53.350;55.922;2022-09-09T04:53:18;99881.59;;;15.36;57.75
60069;BME280;45945;53.350;55.922;2022-09-09T04:54:19;99876.38;;;15.45;57.73
60069;BME280;45945;53.350;55.922;2022-09-09T04:55:20;99881.59;;;15.30;58.02
60069;BME280;45945;53.350;55.922;2022-09-09T04:56:22;99882.34;;;15.09;57.45
60069;BME280;45945;53.350;55.922;2022-09-09T04:57:29;99881.06;;;14.56;58.61
60069;BME280;45945;53.350;55.922;2022-09-09T04:58:33;99873.13;;;14.52;59.07
60069;BME280;45945;53.350;55.922;2022-09-09T04:59:34;99877.59;;;14.63;58.93
60069;BME280;45945;53.350;55.922;2022-09-09T05:00:37;99881.94;;;14.59;58.98
60069;BME280;45945;53.350;55.922;2022-09-09T05:01:40;99855.34;;;14.22;59.54
60069;BME280;45945;53.350;55.922;2022-09-09T05:02:41;99879.16;;;14.39;59.36
60069;BME280;45945;53.350;55.922;2022-09-09T05:03:43;99880.84;;;14.35;59.39
60069;BME280;45945;53.350;55.922;2022-09-09T05:04:50;99881.75;;;14.36;60.49
60069;BME280;45945;53.350;55.922;2022-09-09T05:05:51;99882.53;;;14.26;59.91
60069;BME280;45945;53.350;55.922;2022-09-09T05:06:53;99884.06;;;14.05;60.27
60069;BME280;45945;53.350;55.922;2022-09-09T05:07:54;99878.03;;;14.14;59.85
60069;BME280;45945;53.350;55.922;2022-09-09T05:08:55;99879.66;;;14.01;60.22
60069;BME280;45945;53.350;55.922;2022-09-09T05:09:59;99876.28;;;14.16;59.89
60069;BME280;45945;53.350;55.922;2022-09-09T05:11:01;99877.13;;;14.09;59.57
60069;BME280;45945;53.350;55.922;2022-09-09T05:12:03;99871.69;;;13.93;59.46
60069;BME280;45945;53.350;55.922;2022-09-09T05:13:10;99877.09;;;14.06;59.48
60069;BME280;45945;53.350;55.922;2022-09-09T05:14:12;99853.28;;;13.93;59.80
60069;BME280;45945;53.350;55.922;2022-09-09T05:15:14;99875.38;;;14.12;59.53
60069;BME280;45945;53.350;55.922;2022-09-09T05:16:15;99868.22;;;13.96;59.72
60069;BME280;45945;53.350;55.922;2022-09-09T05:17:16;99883.13;;;13.98;59.64
60069;BME280;45945;53.350;55.922;2022-09-09T05:18:17;99872.94;;;13.51;60.40
60069;BME280;45945;53.350;55.922;2022-09-09T05:19:18;99876.78;;;13.79;59.33
60069;BME280;45945;53.350;55.922;2022-09-09T05:20:23;99876.72;;;13.72;59.42
60069;BME280;45945;53.350;55.922;2022-09-09T05:21:25;99879.44;;;13.82;59.04
60069;BME280;45945;53.350;55.922;2022-09-09T05:22:27;99872.56;;;13.92;59.17
60069;BME280;45945;53.350;55.922;2022-09-09T05:23:28;99879.53;;;13.90;58.90
60069;BME280;45945;53.350;55.922;2022-09-09T05:24:29;99869.00;;;13.87;58.66
60069;BME280;45945;53.350;55.922;2022-09-09T05:25:33;99875.00;;;13.75;59.18
60069;BME280;45945;53.350;55.922;2022-09-09T05:26:35;99876.94;;;13.95;58.64
60069;BME280;45945;53.350;55.922;2022-09-09T05:27:36;99871.84;;;14.06;59.33
60069;BME280;45945;53.350;55.922;2022-09-09T05:28:38;99878.16;;;14.26;59.22
60069;BME280;45945;53.350;55.922;2022-09-09T05:29:40;99880.47;;;13.95;58.87
60069;BME280;45945;53.350;55.922;2022-09-09T05:30:44;99871.78;;;13.99;58.75
60069;BME280;45945;53.350;55.922;2022-09-09T05:31:45;99863.00;;;13.99;58.54
60069;BME280;45945;53.350;55.922;2022-09-09T05:32:50;99878.19;;;14.31;59.26
60069;BME280;45945;53.350;55.922;2022-09-09T05:33:52;99870.38;;;14.42;59.02
60069;BME280;45945;53.350;55.922;2022-09-09T05:34:53;99874.56;;;14.16;58.90
60069;BME280;45945;53.350;55.922;2022-09-09T05:35:58;99851.81;;;14.23;59.43
60069;BME280;45945;53.350;55.922;2022-09-09T05:36:59;99874.72;;;14.33;59.42
60069;BME280;45945;53.350;55.922;2022-09-09T05:38:01;99878.41;;;14.54;59.35
60069;BME280;45945;53.350;55.922;2022-09-09T05:39:03;99879.16;;;14.38;58.88
60069;BME280;45945;53.350;55.922;2022-09-09T05:40:06;99879.94;;;14.30;59.51
60069;BME280;45945;53.350;55.922;2022-09-09T05:41:08;99877.31;;;14.30;59.85
60069;BME280;45945;53.350;55.922;2022-09-09T05:42:11;99877.34;;;14.35;59.46
60069;BME280;45945;53.350;55.922;2022-09-09T05:43:12;99880.06;;;14.43;59.15
60069;BME280;45945;53.350;55.922;2022-09-09T05:44:13;99872.03;;;14.27;59.20
60069;BME280;45945;53.350;55.922;2022-09-09T05:45:14;99872.69;;;14.05;60.28
60069;BME280;45945;53.350;55.922;2022-09-09T05:46:20;99882.38;;;14.09;59.98
60069;BME280;45945;53.350;55.922;2022-09-09T05:47:24;99880.50;;;13.97;60.38
60069;BME280;45945;53.350;55.922;2022-09-09T05:48:27;99875.22;;;13.94;60.26
60069;BME280;45945;53.350;55.922;2022-09-09T05:49:28;99879.72;;;14.07;59.99
60069;BME280;45945;53.350;55.922;2022-09-09T05:50:29;99879.56;;;13.93;60.63
60069;BME280;45945;53.350;55.922;2022-09-09T05:51:30;99873.22;;;13.73;61.28
60069;BME280;45945;53.350;55.922;2022-09-09T05:52:33;99873.22;;;13.73;61.62
60069;BME280;45945;53.350;55.922;2022-09-09T05:53:34;99881.28;;;13.90;61.55
60069;BME280;45945;53.350;55.922;2022-09-09T05:54:39;99879.47;;;13.84;61.36
60069;BME280;45945;53.350;55.922;2022-09-09T05:55:42;99880.34;;;13.81;61.09
60069;BME280;45945;53.350;55.922;2022-09-09T05:56:46;99881.09;;;13.73;61.78
60069;BME280;45945;53.350;55.922;2022-09-09T05:57:50;99873.91;;;13.56;61.69
60069;BME280;45945;53.350;55.922;2022-09-09T05:58:53;99880.91;;;13.56;62.45
60069;BME280;45945;53.350;55.922;2022-09-09T05:59:55;99881.88;;;13.64;62.35
60069;BME280;45945;53.350;55.922;2022-09-09T06:01:04;99878.28;;;13.54;62.83
60069;BME280;45945;53.350;55.922;2022-09-09T06:02:08;99877.34;;;13.52;62.00
60069;BME280;45945;53.350;55.922;2022-09-09T06:03:11;99879.03;;;13.45;62.71
60069;BME280;45945;53.350;55.922;2022-09-09T06:04:13;99881.81;;;13.58;62.75
60069;BME280;45945;53.350;55.922;2022-09-09T06:05:15;99876.75;;;13.75;62.00
60069;BME280;45945;53.350;55.922;2022-09-09T06:06:19;99879.47;;;13.84;62.31
60069;BME280;45945;53.350;55.922;2022-09-09T06:07:25;99878.59;;;13.82;61.42
60069;BME280;45945;53.350;55.922;2022-09-09T06:08:26;99868.03;;;13.79;62.16
60069;BME280;45945;53.350;55.922;2022-09-09T06:09:28;99868.16;;;13.91;62.35
60069;BME280;45945;53.350;55.922;2022-09-09T06:10:31;99870.06;;;14.05;61.85
60069;BME280;45945;53.350;55.922;2022-09-09T06:11:33;99878.84;;;14.07;61.65
60069;BME280;45945;53.350;55.922;2022-09-09T06:12:34;99875.38;;;14.12;61.28
60069;BME280;45945;53.350;55.922;2022-09-09T06:13:37;99881.22;;;13.83;61.87
60069;BME280;45945;53.350;55.922;2022-09-09T06:14:40;99880.47;;;13.95;62.48
60069;BME280;45945;53.350;55.922;2022-09-09T06:15:49;99883.94;;;13.93;62.22
60069;BME280;45945;53.350;55.922;2022-09-09T06:16:51;99882.00;;;13.75;62.70
60069;BME280;45945;53.350;55.922;2022-09-09T06:17:56;99876.81;;;13.82;62.51
60069;BME280;45945;53.350;55.922;2022-09-09T06:18:57;99893.53;;;13.86;62.19
60069;BME280;45945;53.350;55.922;2022-09-09T06:20:00;99889.97;;;13.82;62.11